Aktualne dane pomiarowe

Uwaga, wersja testowa! Automatyczne pobieranie danych za pomocą narzędzi lub skryptów to umożliwiających jest zabronione.

Dane meteo z obszaru Polski uzyskane na podstawie depesz SYNOP pobieranych co godzinę z NWS. Najedź myszką na symbol przedstawiony w tabeli, aby uzyskać informacje co do jego znaczenia. Prosimy pamiętać, że to testowa wersja strony, która jeszcze nie jest ukończona. Stworzono również jest krótki FAQ dotyczący korzystania z tej podstrony Anomalie temperatury w chwili obecnej odniesione są do okresu referencyjnego 1951-2016. Okres ten będzie później zmieniony na 1981-2010. Kliknij ikonę aby pobrać plik CSV. Kliknij ikonę aby wygenerować mapę synoptyczną dla danego terminu.

Wybierz Datę:    

        

Legnica (12415)

Dane terminowe dla wybranej stacji. Kliknij datę, aby otrzymać dane z tego terminu dla wszystkich stacji.

TemperaturaZachmurzenieWiatrCiśnienieOpadyPogoda
 Data t td wb tx tn tg rh  Nt Nl Cl Cm Ch ws wd g1 g2 wx mslp ppp ch 24h 12h t ww ww w1 w2  
2019-07-12 23:00:00 15.1 12.2 13.1--- 8345.0--2wx--21010.1 995.2 0.2---------
2019-07-12 22:00:00 15.0 13.5 13.9--- 9140.0--1wx---1010.0 995.1 0.2---------
2019-07-12 21:00:00 16.1 13.4 14.2--- 8440.0--1wx-911009.8 995.0 0.1---------
2019-07-12 20:00:00 17.1 13.4 14.6--- 7950.0--1wx--11009.7 995.0 -0.2---------
2019-07-12 19:00:00 18.7 13.1 15.1--- 7040.0--1wx-911009.6 994.9 -0.4---------
2019-07-12 18:00:00 19.8 13.2 15.6 20.1 16.8- 6650.0wxwxwxwxwx1wx--11009.5 994.9 -0.8- 0.712wx-w1--
2019-07-12 17:00:00 19.9 13.4 15.7--- 6650.0wxwxwxwxwx2wx--21009.8 995.2 -0.8---------
2019-07-12 16:00:00 19.6 13.9 15.9--- 7040.0wxwxwxwx2wx--21009.9 995.3 -0.9---------
2019-07-12 15:00:00 19.1 14.7 16.1--- 7640.0wxwxwxwx3wx--31010.4 995.7 -0.5---wx-w1--
2019-07-12 14:00:00 18.6 13.8 15.4--- 7440.0wxwxwxwx2wx--21010.7 996.0 -0.4---wx-w1--
2019-07-12 13:00:00 17.9 15.2 16.0--- 8440.0wxwxwxwx3wx--31010.9 996.2 -0.4---wx-w1w2--
2019-07-12 12:00:00 19.0 14.4 15.9--- 7530.0wxwxwxwx4wx--41010.9 996.2 -0.5- 0.36wx-w1w2--
2019-07-12 11:00:00 18.0 15.2 16.1--- 8430.0wxwxwxwx3wx--31011.1 996.4 -0.2---wx-w1w2--
2019-07-12 10:00:00 16.9 15.0 15.6--- 8920.0wxwxwxwx4wx--41011.4 996.6 0.0---wx-w1w2--
2019-07-12 09:00:00 18.8 13.3 15.2--- 7020.0wxwxwxwx4wx---1011.4 996.7 0.4---wx-w1--
2019-07-12 08:00:00 18.6 14.4 15.8--- 7730.0wxwxwxwx4wx--41011.3 996.6 0.4---wx-w1--
2019-07-12 07:00:00 18.5 13.5 15.2--- 7340.0wxwxwxwx3wx--31011.3 996.6 0.5---wx-w1--
2019-07-12 06:00:00 18.0 13.4 15.0 22.3 10.8 8 7540.0wxwxwxwx3wx--31011.0 996.3 0.2--12wx---- 10.0
2019-07-12 05:00:00 17.3 12.4 14.1--- 7325.0--3wx---1011.0 996.2 0.1---------
2019-07-12 04:00:00 13.5 9.0 10.7--- 7430.0--1wx--11011.1 996.1 -0.3---------
2019-07-12 03:00:00 12.5 8.0 9.7--- 7450.0--1wx--11011.1 996.1 -0.5---------
2019-07-12 02:00:00 12.3 7.8 9.5--- 7450.0--1wx--11011.1 996.1 -0.9---------
2019-07-12 01:00:00 10.8 6.9 8.4--- 7750.0--1wx--11011.5 996.4 -0.7---------
2019-07-12 00:00:00 10.8 6.9 8.4--- 7745.0--1wx--11011.7 996.6 -0.5- 0.06------
2019-07-11 23:00:00 12.1 8.0 9.5--- 7640.0--1wx--11012.0 997.0 0.0---------
2019-07-11 22:00:00 13.1 6.9 9.4--- 666.0--2wx--21012.1 997.1 0.4---------
2019-07-11 21:00:00 15.8 7.0 10.8--- 5630.0--1wx--11011.9 997.1 0.5---------
2019-07-11 20:00:00 16.7 7.1 11.2--- 537.0--1wx--11011.8 997.0 0.4---wx-----
2019-07-11 19:00:00 19.4 6.8 12.4--- 449.0--1wx--11011.4 996.7 0.2---------
2019-07-11 18:00:00 22.3 5.7 13.2 25.0 16.3- 3450.0wxwxwxwxwx1wx--11011.1 996.6 -0.2- 0.012------
2019-07-11 17:00:00 23.7 4.6 13.4--- 2950.0wxwxwxwxwx2wx--21011.0 996.6 -0.4---------
2019-07-11 16:00:00 24.0 4.9 13.7--- 2950.0wxwxwxwx2wx--21010.9 996.5 -0.9---------
2019-07-11 15:00:00 23.5 4.9 13.5--- 3050.0wxwxwxwx2wx--21011.3 996.8 -1.0---------
2019-07-11 14:00:00 24.3 5.1 13.9--- 2950.0wxwxwxwxwx4wx--41011.4 997.0 -1.3---------
2019-07-11 13:00:00 24.2 5.0 13.8--- 2950.0wxwxwxwxwx3wx--31011.8 997.4 -1.2---------
2019-07-11 12:00:00 24.0 5.3 13.8--- 3050.0wxwxwxwxwx4wx-1141012.2 997.8 -1.1- 0.06------
2019-07-11 11:00:00 22.7 5.1 13.2--- 3250.0wxwxwxwx4wx-941012.8 998.3 -0.8---------
2019-07-11 10:00:00 21.7 6.4 13.3--- 3750.0wxwxwxwx5wx111151013.2 998.6 -0.6---------
2019-07-11 09:00:00 20.7 7.0 13.0--- 4150.0wxwxwxwxwx4wx-941013.5 998.9 -0.3---------
2019-07-11 08:00:00 19.7 8.0 13.0--- 4750.0wxwxwxwxwx4wx--41013.8 999.1 0.0---------
2019-07-11 07:00:00 18.0 9.8 13.1--- 5950.0wxwxwxwxwx4wx---1014.0 999.2 0.1---------
2019-07-11 06:00:00 16.3 10.3 12.6 16.4 12.4 11 6850.0wxwxwxwxwx5wx--51014.1 999.2 0.3 0.5-12wx---- 5.1
2019-07-11 05:00:00 14.7 10.9 12.2--- 7845.0--4wx--41014.0 999.1 -0.1---------
2019-07-11 04:00:00 13.3 11.2 11.9--- 8745.0--2wx--21014.1 999.1 -0.6---------
2019-07-11 03:00:00 13.0 11.2 11.7--- 8945.0--2wx--21013.9 998.9 -0.8---------
2019-07-11 02:00:00 13.4 11.3 12.0--- 8750.0--2wx--21014.2 999.2 -0.9---------
2019-07-11 01:00:00 14.0 11.2 12.1--- 8350.0--3wx--31014.7 999.7 -0.3---------
2019-07-11 00:00:00 12.7 10.6 11.3--- 8750.0--2wx-2121014.7 999.7 -0.5--6------
1.2 ms

 

Print Friendly, PDF & Email